Time;durP1;ratioP1;P1;durP2;ratioP2;P2;SDS_P1;SDS_P2;PMS_P1;PMS_P2;Temp;Humidity;BMP_temperature;BMP_pressure;BME280_temperature;BME280_humidity;BME280_pressure;Samples;Min_cycle;Max_cycle;Signal;HPM_P1;HPM_P2
2022/06/22 00:03:01;;;;;;;4.85;3.17;;;;;18.10;95988.00;;;;8314225;28;20236;-71
2022/06/22 00:07:07;;;;;;;3.35;3.13;;;;;18.10;95976.00;;;;8318819;28;20722;-69
2022/06/22 00:11:15;;;;;;;3.97;3.00;;;;;18.10;95964.00;;;;8318269;28;20205;-70
2022/06/22 00:15:26;;;;;;;2.50;2.30;;;;;18.20;95974.00;;;;8306753;28;20750;-71
2022/06/22 00:19:36;;;;;;;3.38;3.08;;;;;18.20;95964.00;;;;8310915;28;20284;-69
2022/06/22 00:23:42;;;;;;;3.00;2.80;;;;;18.20;95967.00;;;;8316827;28;20207;-69
2022/06/22 00:27:45;;;;;;;3.28;2.97;;;;;18.10;95961.00;;;;8317902;28;20285;-69
2022/06/22 00:32:15;;;;;;;9.70;3.13;;;;;18.00;95954.00;;;;8311508;28;20277;-70
2022/06/22 00:36:21;;;;;;;4.03;2.90;;;;;18.00;95946.00;;;;8312125;28;20613;-69
2022/06/22 00:40:25;;;;;;;3.55;3.03;;;;;18.10;95954.00;;;;8316803;28;20280;-70
2022/06/22 00:44:32;;;;;;;3.78;2.80;;;;;18.00;95970.00;;;;8321463;28;20225;-70
2022/06/22 00:48:36;;;;;;;5.75;3.03;;;;;17.90;95960.00;;;;8318938;28;20316;-70
2022/06/22 00:52:45;;;;;;;9.98;3.55;;;;;17.80;95961.00;;;;8304944;28;20205;-70
2022/06/22 00:56:55;;;;;;;3.72;2.88;;;;;17.80;95960.00;;;;8320777;28;20273;-70
2022/06/22 01:01:05;;;;;;;4.72;2.97;;;;;17.60;95948.00;;;;8317225;28;20194;-71
2022/06/22 01:05:19;;;;;;;3.65;2.90;;;;;17.50;95929.00;;;;8320499;28;20217;-70
2022/06/22 01:09:31;;;;;;;4.03;3.70;;;;;17.40;95916.00;;;;8312783;28;20205;-70
2022/06/22 01:13:41;;;;;;;5.55;3.22;;;;;17.30;95914.00;;;;8319184;28;20365;-71
2022/06/22 01:17:52;;;;;;;5.75;3.30;;;;;17.20;95916.00;;;;8317315;28;20201;-70
2022/06/22 01:22:12;;;;;;;3.53;2.78;;;;;17.30;95902.00;;;;8311851;28;20202;-71
2022/06/22 01:26:41;;;;;;;7.63;3.30;;;;;17.30;95894.00;;;;8316493;28;20217;-71
2022/06/22 01:30:49;;;;;;;3.75;3.03;;;;;17.20;95887.00;;;;8315215;28;20288;-70
2022/06/22 01:34:56;;;;;;;5.35;3.20;;;;;17.20;95882.00;;;;8327711;28;20611;-70
2022/06/22 01:39:02;;;;;;;3.58;2.97;;;;;17.10;95874.00;;;;8327139;28;20198;-70
2022/06/22 01:43:09;;;;;;;3.22;3.03;;;;;17.00;95879.00;;;;8323616;28;20703;-70
2022/06/22 01:47:21;;;;;;;5.25;3.55;;;;;17.00;95873.00;;;;8324661;28;20228;-69
2022/06/22 01:51:30;;;;;;;8.13;3.35;;;;;16.90;95878.00;;;;8326616;28;20200;-68
2022/06/22 01:55:40;;;;;;;4.72;3.45;;;;;16.80;95880.00;;;;8322610;28;20605;-69
2022/06/22 01:59:50;;;;;;;4.97;3.10;;;;;16.70;95867.00;;;;8314993;28;20215;-70
2022/06/22 02:04:08;;;;;;;4.78;2.80;;;;;16.70;95865.00;;;;8327099;28;20265;-70
2022/06/22 02:08:18;;;;;;;6.18;3.00;;;;;16.70;95868.00;;;;8324406;28;20226;-71
2022/06/22 02:12:28;;;;;;;3.03;2.75;;;;;16.80;95877.00;;;;8327893;28;20292;-71
2022/06/22 02:16:38;;;;;;;3.25;2.95;;;;;17.10;95885.00;;;;8325438;28;20205;-70
2022/06/22 02:20:43;;;;;;;6.85;3.38;;;;;17.20;95896.00;;;;8327122;28;20285;-70
2022/06/22 02:24:48;;;;;;;4.25;3.42;;;;;17.10;95899.00;;;;8326150;28;20609;-70
2022/06/22 02:28:52;;;;;;;5.25;3.25;;;;;17.10;95903.00;;;;8325506;28;20284;-71
2022/06/22 02:32:55;;;;;;;7.22;3.58;;;;;17.00;95902.00;;;;8332943;28;20200;-69
2022/06/22 02:37:02;;;;;;;4.55;3.53;;;;;17.00;95895.00;;;;8326128;28;20229;-70
2022/06/22 02:45:26;;;;;;;7.90;3.60;;;;;16.80;95885.00;;;;8320989;28;20234;-70
2022/06/22 02:49:34;;;;;;;5.50;3.65;;;;;16.70;95879.00;;;;8320490;28;20666;-70
2022/06/22 02:53:41;;;;;;;5.30;3.50;;;;;16.60;95885.00;;;;8321937;28;20879;-68
2022/06/22 02:57:48;;;;;;;6.80;3.63;;;;;16.60;95889.00;;;;8322318;28;20201;-68
2022/06/22 03:01:52;;;;;;;3.90;3.50;;;;;16.50;95878.00;;;;8346509;22;20616;-67
2022/06/22 03:05:56;;;;;;;5.63;3.10;;;;;16.60;95882.00;;;;8383366;28;20224;-68
2022/06/22 03:10:04;;;;;;;7.30;3.22;;;;;16.60;95870.00;;;;8388239;28;20574;-68
2022/06/22 03:14:18;;;;;;;4.88;3.00;;;;;16.60;95862.00;;;;8372820;28;20227;-68
2022/06/22 03:18:26;;;;;;;6.50;3.13;;;;;16.60;95864.00;;;;8373201;28;20291;-68
2022/06/22 03:22:33;;;;;;;6.13;3.17;;;;;16.60;95866.00;;;;8386528;28;20693;-68
2022/06/22 03:26:41;;;;;;;4.57;3.20;;;;;16.70;95868.00;;;;8380386;28;20229;-68
2022/06/22 03:30:49;;;;;;;4.70;3.17;;;;;16.70;95878.00;;;;8378099;28;20198;-67
2022/06/22 03:35:02;;;;;;;6.28;3.55;;;;;16.70;95878.00;;;;8376966;28;20287;-67
2022/06/22 03:39:08;;;;;;;6.43;3.00;;;;;16.80;95887.00;;;;8371500;28;20646;-67
2022/06/22 03:43:17;;;;;;;4.07;3.60;;;;;16.80;95886.00;;;;8365657;28;20275;-67
2022/06/22 03:47:24;;;;;;;4.82;3.60;;;;;16.90;95889.00;;;;8374937;28;20580;-67
2022/06/22 03:51:32;;;;;;;6.63;3.95;;;;;17.00;95896.00;;;;8376558;28;20310;-69
2022/06/22 03:55:38;;;;;;;6.60;3.80;;;;;17.10;95892.00;;;;8376490;28;20564;-69
2022/06/22 03:59:46;;;;;;;3.35;2.95;;;;;17.10;95894.00;;;;8383318;28;20204;-69
2022/06/22 04:03:51;;;;;;;6.30;3.40;;;;;17.30;95909.00;;;;8398630;28;20255;-68
2022/06/22 04:08:00;;;;;;;5.85;3.22;;;;;17.50;95901.00;;;;8403564;28;20288;-67
2022/06/22 04:12:11;;;;;;;5.13;3.53;;;;;17.80;95903.00;;;;8407290;28;20256;-68
2022/06/22 04:16:18;;;;;;;4.78;3.13;;;;;18.00;95904.00;;;;8402694;28;20279;-67
2022/06/22 04:20:25;;;;;;;4.13;3.38;;;;;18.10;95902.00;;;;8408232;28;20211;-70
2022/06/22 04:24:31;;;;;;;5.25;3.17;;;;;18.20;95903.00;;;;8399612;28;20199;-68
2022/06/22 04:28:38;;;;;;;5.15;3.15;;;;;18.50;95895.00;;;;8409760;28;20586;-69
2022/06/22 04:32:49;;;;;;;5.55;3.50;;;;;18.60;95891.00;;;;8417664;28;20306;-69
2022/06/22 04:36:57;;;;;;;4.10;3.20;;;;;18.60;95903.00;;;;8400226;28;20202;-69
2022/06/22 04:41:07;;;;;;;6.68;3.30;;;;;18.80;95899.00;;;;8407597;28;20231;-67
2022/06/22 04:45:28;;;;;;;4.90;3.38;;;;;19.50;95901.00;;;;8409418;28;20296;-69
2022/06/22 04:49:36;;;;;;;4.05;3.65;;;;;20.10;95905.00;;;;8403485;28;20785;-68
2022/06/22 04:53:43;;;;;;;9.60;3.88;;;;;20.20;95907.00;;;;8407641;28;20754;-68
2022/06/22 04:57:49;;;;;;;5.72;3.40;;;;;20.50;95923.00;;;;8424270;28;20801;-69
2022/06/22 05:01:59;;;;;;;7.45;3.05;;;;;20.90;95920.00;;;;8413302;28;20234;-67
2022/06/22 05:06:09;;;;;;;5.82;3.03;;;;;21.40;95928.00;;;;8409320;28;20220;-70
2022/06/22 05:10:19;;;;;;;3.45;3.15;;;;;21.90;95920.00;;;;8413410;28;20644;-68
2022/06/22 05:14:26;;;;;;;3.60;3.30;;;;;22.00;95916.00;;;;8402321;28;20239;-69
2022/06/22 05:18:32;;;;;;;4.72;3.05;;;;;22.20;95913.00;;;;8399643;28;20199;-68
2022/06/22 05:22:36;;;;;;;8.30;3.15;;;;;22.70;95923.00;;;;8412873;28;20231;-69
2022/06/22 05:26:41;;;;;;;3.95;3.53;;;;;23.00;95926.00;;;;8404893;28;20236;-68
2022/06/22 05:30:47;;;;;;;4.43;3.28;;;;;23.50;95916.00;;;;8414243;28;20230;-68
2022/06/22 05:34:54;;;;;;;7.82;3.28;;;;;23.60;95918.00;;;;8411232;28;20571;-68
2022/06/22 05:39:01;;;;;;;3.25;2.95;;;;;23.60;95912.00;;;;8413776;28;20278;-68
2022/06/22 05:43:06;;;;;;;5.13;3.42;;;;;23.50;95905.00;;;;8411343;28;20291;-68
2022/06/22 05:47:16;;;;;;;3.20;2.88;;;;;23.70;95917.00;;;;8405940;28;20237;-68
2022/06/22 05:51:25;;;;;;;7.47;3.35;;;;;23.60;95918.00;;;;8409926;28;20322;-69
2022/06/22 05:55:36;;;;;;;3.80;3.20;;;;;23.70;95919.00;;;;8411563;28;20203;-69
2022/06/22 05:59:46;;;;;;;6.60;3.63;;;;;24.60;95919.00;;;;8401870;28;20207;-69
2022/06/22 06:03:58;;;;;;;3.60;3.28;;;;;25.10;95909.00;;;;8414631;28;20319;-68
2022/06/22 06:08:07;;;;;;;7.60;3.50;;;;;25.30;95921.00;;;;8407260;28;20664;-67
2022/06/22 06:12:18;;;;;;;3.35;3.10;;;;;24.90;95920.00;;;;8413378;28;20286;-67
2022/06/22 06:16:24;;;;;;;7.57;4.30;;;;;24.60;95930.00;;;;8417524;28;20198;-68
2022/06/22 06:20:32;;;;;;;10.07;4.38;;;;;24.50;95921.00;;;;8402378;28;20283;-68
2022/06/22 06:27:34;;;;;;;4.03;3.10;;;;;24.70;95913.00;;;;8397040;28;20243;-67
2022/06/22 06:29:11;;;;;;;4.03;3.47;;;;;25.40;95920.00;;;;8414556;28;20243;-69
2022/06/22 06:33:23;;;;;;;9.63;3.95;;;;;26.50;95926.00;;;;8397640;28;20275;-67
2022/06/22 06:37:42;;;;;;;5.97;3.20;;;;;27.20;95929.00;;;;8414821;28;20286;-67
2022/06/22 06:42:03;;;;;;;8.70;3.53;;;;;27.30;95925.00;;;;8399077;28;20204;-73
2022/06/22 06:46:16;;;;;;;4.63;3.20;;;;;27.20;95918.00;;;;8402682;28;20200;-74
2022/06/22 06:50:23;;;;;;;3.35;3.05;;;;;27.10;95920.00;;;;8418279;28;20291;-73
2022/06/22 06:54:31;;;;;;;5.30;3.55;;;;;27.40;95912.00;;;;8401249;28;20200;-74
2022/06/22 06:58:41;;;;;;;4.80;3.60;;;;;27.80;95906.00;;;;8413278;28;20282;-74
2022/06/22 07:02:45;;;;;;;3.17;2.92;;;;;28.10;95897.00;;;;8414165;28;20231;-74
2022/06/22 07:06:49;;;;;;;5.82;3.10;;;;;28.10;95899.00;;;;8409749;28;20227;-73
2022/06/22 07:10:55;;;;;;;5.22;3.00;;;;;28.30;95902.00;;;;8401973;28;20255;-73
2022/06/22 07:15:03;;;;;;;3.63;2.83;;;;;28.70;95920.00;;;;8413759;28;20202;-73
2022/06/22 07:19:16;;;;;;;4.05;2.97;;;;;29.40;95919.00;;;;8405615;28;20816;-73
2022/06/22 07:23:23;;;;;;;5.88;2.88;;;;;29.70;95925.00;;;;8412727;28;20191;-74
2022/06/22 07:27:33;;;;;;;5.05;3.00;;;;;30.10;95921.00;;;;8404529;28;20227;-75
2022/06/22 07:31:41;;;;;;;4.57;3.00;;;;;30.60;95912.00;;;;8398502;28;20294;-74
2022/06/22 07:35:53;;;;;;;4.45;3.05;;;;;30.70;95910.00;;;;8415100;28;20277;-74
2022/06/22 07:40:01;;;;;;;6.72;3.38;;;;;31.20;95919.00;;;;8400249;28;20218;-75
2022/06/22 07:44:07;;;;;;;4.75;2.70;;;;;31.70;95924.00;;;;8408624;28;20310;-77
2022/06/22 07:48:19;;;;;;;5.90;3.00;;;;;32.30;95938.00;;;;8407525;28;20220;-76
2022/06/22 07:52:28;;;;;;;4.63;3.10;;;;;32.80;95939.00;;;;8422709;28;20250;-76
2022/06/22 07:56:42;;;;;;;5.53;3.38;;;;;32.90;95942.00;;;;8406156;28;20965;-71
2022/06/22 08:00:49;;;;;;;5.70;3.38;;;;;33.30;95941.00;;;;8411689;28;20231;-73
2022/06/22 08:04:57;;;;;;;5.60;3.17;;;;;33.70;95938.00;;;;8410698;28;20314;-73
2022/06/22 08:09:14;;;;;;;5.88;3.03;;;;;33.80;95932.00;;;;8414825;28;20234;-77
2022/06/22 08:13:23;;;;;;;5.90;3.03;;;;;34.20;95934.00;;;;8410572;28;20231;-75
2022/06/22 08:17:36;;;;;;;5.03;2.90;;;;;34.40;95939.00;;;;8404629;28;20271;-72
2022/06/22 08:21:46;;;;;;;4.05;2.97;;;;;34.50;95941.00;;;;8417443;28;20204;-72
2022/06/22 08:25:52;;;;;;;5.25;2.90;;;;;34.40;95943.00;;;;8405698;28;20315;-72
2022/06/22 08:29:57;;;;;;;4.63;2.78;;;;;34.10;95945.00;;;;8414305;28;20255;-73
2022/06/22 08:34:02;;;;;;;4.53;3.10;;;;;34.10;95939.00;;;;8391524;28;20232;-76
2022/06/22 08:38:09;;;;;;;10.52;3.15;;;;;34.30;95943.00;;;;8413263;28;20537;-75
2022/06/22 08:42:26;;;;;;;3.67;3.08;;;;;34.60;95939.00;;;;8410205;28;20283;-76
2022/06/22 08:46:51;;;;;;;4.13;3.00;;;;;35.10;95933.00;;;;8410134;28;20195;-76
2022/06/22 08:51:19;;;;;;;9.10;3.55;;;;;34.90;95937.00;;;;8411384;28;20192;-76
2022/06/22 08:55:35;;;;;;;6.05;2.80;;;;;35.00;95932.00;;;;8408109;28;20213;-76
2022/06/22 09:00:04;;;;;;;6.15;3.00;;;;;34.90;95942.00;;;;8408068;28;20788;-77
2022/06/22 09:04:34;;;;;;;5.03;3.05;;;;;34.60;95945.00;;;;8408475;28;20226;-75
2022/06/22 09:09:26;;;;;;;6.55;3.10;;;;;34.90;95947.00;;;;8411981;28;20220;-77
2022/06/22 09:14:08;;;;;;;3.83;3.13;;;;;35.70;95940.00;;;;8382600;28;20919;-79
2022/06/22 09:18:45;;;;;;;5.88;3.05;;;;;36.80;95950.00;;;;8410118;28;20227;-76
2022/06/22 09:22:56;;;;;;;4.60;2.90;;;;;37.20;95947.00;;;;8410226;28;20708;-76
2022/06/22 09:27:10;;;;;;;4.13;2.63;;;;;37.50;95954.00;;;;8387162;28;20206;-76
2022/06/22 09:32:01;;;;;;;7.75;2.85;;;;;36.80;95963.00;;;;8389001;28;20235;-75
2022/06/22 09:36:31;;;;;;;7.53;3.38;;;;;36.00;95966.00;;;;8398710;28;20200;-74
2022/06/22 09:40:45;;;;;;;4.25;3.08;;;;;35.50;95979.00;;;;8393061;28;20241;-77
2022/06/22 09:45:11;;;;;;;8.23;3.88;;;;;35.10;95978.00;;;;8400113;28;20834;-76
2022/06/22 09:49:31;;;;;;;7.28;3.13;;;;;35.30;95980.00;;;;8399815;28;20233;-77
2022/06/22 09:56:19;;;;;;;6.38;3.20;;;;;35.00;95975.00;;;;8408631;28;20744;-75
2022/06/22 09:59:02;;;;;;;6.97;3.55;;;;;34.80;95981.00;;;;8404196;28;20282;-75
2022/06/22 10:03:31;;;;;;;7.28;3.17;;;;;35.20;95982.00;;;;8407390;28;20232;-75
2022/06/22 10:07:49;;;;;;;5.63;3.03;;;;;34.90;95986.00;;;;8403656;28;20728;-76
2022/06/22 10:12:03;;;;;;;6.72;3.90;;;;;34.30;95984.00;;;;8413335;28;20206;-72
2022/06/22 10:16:26;;;;;;;7.05;3.63;;;;;33.70;95991.00;;;;8415126;28;20674;-76
2022/06/22 10:20:42;;;;;;;6.18;3.92;;;;;32.90;95991.00;;;;8419457;28;20199;-76
2022/06/22 10:25:07;;;;;;;5.95;3.55;;;;;32.00;96006.00;;;;8409867;28;20208;-75
2022/06/22 10:29:41;;;;;;;7.72;3.67;;;;;31.20;96003.00;;;;8410252;28;20251;-76
2022/06/22 10:34:00;;;;;;;6.75;4.22;;;;;30.50;96006.00;;;;8405011;28;20236;-76
2022/06/22 10:38:38;;;;;;;8.98;4.15;;;;;29.80;96002.00;;;;8420234;28;20279;-76
2022/06/22 10:47:49;;;;;;;11.35;4.47;;;;;27.30;95989.00;;;;8381736;28;20208;-73
2022/06/22 10:52:20;;;;;;;10.23;5.03;;;;;26.20;95995.00;;;;8404960;28;20619;-70
2022/06/22 10:56:53;;;;;;;9.25;4.85;;;;;25.60;95988.00;;;;8413305;28;20536;-73
2022/06/22 11:01:22;;;;;;;12.30;5.18;;;;;25.20;95980.00;;;;8415521;28;20668;-71
2022/06/22 11:05:59;;;;;;;11.52;5.18;;;;;25.10;95977.00;;;;8415041;28;20200;-71
2022/06/22 11:10:28;;;;;;;8.77;5.05;;;;;25.00;95967.00;;;;8369681;28;20306;-73
2022/06/22 11:14:59;;;;;;;8.95;5.30;;;;;25.00;95965.00;;;;8403742;28;20199;-74
2022/06/22 11:19:39;;;;;;;9.85;5.10;;;;;25.20;95955.00;;;;8410317;28;20661;-76
2022/06/22 11:24:08;;;;;;;14.35;5.20;;;;;25.80;95962.00;;;;8412033;28;20202;-75
2022/06/22 11:33:21;;;;;;;13.52;5.38;;;;;26.90;95954.00;;;;8390898;28;20200;-75
2022/06/22 11:37:37;;;;;;;9.05;4.53;;;;;27.50;95957.00;;;;8390251;28;20299;-76
2022/06/22 11:42:19;;;;;;;8.45;4.57;;;;;28.20;95970.00;;;;8408082;28;20226;-76
2022/06/22 11:46:28;;;;;;;9.23;4.53;;;;;29.10;95975.00;;;;8411263;28;20191;-76
2022/06/22 11:50:42;;;;;;;8.43;4.50;;;;;29.90;95978.00;;;;8403181;28;20545;-76
2022/06/22 11:54:55;;;;;;;12.82;5.13;;;;;30.30;95973.00;;;;8401943;28;20689;-75
2022/06/22 11:59:16;;;;;;;8.27;4.72;;;;;30.70;95979.00;;;;8400846;28;20206;-77
2022/06/22 12:03:40;;;;;;;9.50;4.65;;;;;31.00;95978.00;;;;8399740;28;20253;-77
2022/06/22 12:08:00;;;;;;;9.23;4.72;;;;;31.20;95974.00;;;;8401295;28;20223;-77
2022/06/22 12:12:37;;;;;;;8.80;4.95;;;;;31.40;95966.00;;;;8407557;28;20196;-75
2022/06/22 12:16:49;;;;;;;8.35;4.43;;;;;31.20;95967.00;;;;8374656;28;20661;-77
2022/06/22 12:21:18;;;;;;;12.68;4.38;;;;;31.50;95972.00;;;;8400277;28;20219;-78
2022/06/22 12:25:44;;;;;;;9.57;4.80;;;;;31.60;95973.00;;;;8406624;28;20688;-76
2022/06/22 12:30:16;;;;;;;8.80;4.55;;;;;31.50;95978.00;;;;8404868;28;20215;-76
2022/06/22 12:34:29;;;;;;;8.15;4.45;;;;;31.40;95975.00;;;;8421735;28;20211;-77
2022/06/22 12:38:37;;;;;;;9.82;4.55;;;;;31.50;95980.00;;;;8391023;28;20636;-80
2022/06/22 12:43:24;;;;;;;9.52;4.55;;;;;31.70;95972.00;;;;8398081;28;20200;-78
2022/06/22 12:47:46;;;;;;;11.88;4.32;;;;;31.70;95967.00;;;;8402788;28;20226;-77
2022/06/22 12:51:57;;;;;;;7.43;4.70;;;;;31.70;95960.00;;;;8406668;28;20773;-75
2022/06/22 12:56:08;;;;;;;8.98;4.85;;;;;31.70;95954.00;;;;8405900;28;20616;-78
2022/06/22 13:00:15;;;;;;;9.13;4.35;;;;;32.00;95946.00;;;;8404527;28;20284;-78
2022/06/22 13:04:22;;;;;;;6.85;4.00;;;;;32.10;95951.00;;;;8408121;28;20238;-78
2022/06/22 13:08:29;;;;;;;8.43;4.50;;;;;32.20;95947.00;;;;8395524;28;20230;-76
2022/06/22 13:12:39;;;;;;;9.10;4.70;;;;;32.00;95951.00;;;;8395234;28;20192;-78
2022/06/22 13:16:50;;;;;;;8.60;4.60;;;;;32.20;95951.00;;;;8400767;28;20226;-76
2022/06/22 13:21:00;;;;;;;6.10;5.00;;;;;32.50;95951.00;;;;8394579;28;20838;-81
2022/06/22 13:25:17;;;;;;;9.88;4.07;;;;;32.80;95943.00;;;;8405530;28;20735;-82
2022/06/22 13:29:29;;;;;;;12.85;4.93;;;;;33.00;95938.00;;;;8405782;28;20322;-85
2022/06/22 13:33:40;;;;;;;9.52;4.80;;;;;33.30;95937.00;;;;8400093;28;20192;-83
2022/06/22 13:37:51;;;;;;;8.32;4.80;;;;;33.50;95933.00;;;;8396175;28;20204;-79
2022/06/22 13:42:25;;;;;;;10.23;5.20;;;;;33.50;95935.00;;;;8396386;28;20220;-78
2022/06/22 13:46:43;;;;;;;9.50;4.63;;;;;33.40;95932.00;;;;8394445;28;20210;-77
2022/06/22 13:51:35;;;;;;;10.20;4.75;;;;;33.10;95927.00;;;;8409630;28;20234;-76
2022/06/22 13:55:51;;;;;;;6.82;4.85;;;;;32.90;95930.00;;;;8356891;28;20195;-75
2022/06/22 14:00:02;;;;;;;18.95;5.22;;;;;32.90;95926.00;;;;8398741;28;20601;-77
2022/06/22 14:04:13;;;;;;;9.27;5.20;;;;;32.70;95923.00;;;;8397352;28;20259;-82
2022/06/22 14:08:51;;;;;;;6.93;3.85;;;;;32.50;95926.00;;;;8407080;28;20553;-75
2022/06/22 14:13:01;;;;;;;9.40;5.65;;;;;32.10;95928.00;;;;8401355;28;20200;-78
2022/06/22 14:17:12;;;;;;;8.07;5.25;;;;;31.40;95930.00;;;;8399659;28;20187;-76
2022/06/22 14:21:22;;;;;;;10.32;5.20;;;;;30.80;95929.00;;;;8409634;28;20199;-76
2022/06/22 14:25:36;;;;;;;7.13;4.90;;;;;30.40;95924.00;;;;8422649;28;20587;-75
2022/06/22 14:30:01;;;;;;;8.23;5.75;;;;;30.10;95922.00;;;;8386608;28;20319;-73
2022/06/22 14:34:23;;;;;;;12.48;6.85;;;;;29.70;95923.00;;;;8400320;28;20233;-77
2022/06/22 14:38:47;;;;;;;11.25;6.10;;;;;29.60;95924.00;;;;8412332;28;20235;-75
2022/06/22 14:42:55;;;;;;;11.32;5.78;;;;;29.30;95918.00;;;;8414447;28;20200;-76
2022/06/22 14:47:11;;;;;;;7.10;5.95;;;;;28.90;95925.00;;;;8404721;28;20199;-78
2022/06/22 14:51:32;;;;;;;10.20;6.40;;;;;28.60;95917.00;;;;8415376;28;20643;-76
2022/06/22 14:55:49;;;;;;;11.18;6.65;;;;;28.40;95915.00;;;;8407721;28;20299;-77
2022/06/22 15:00:20;;;;;;;16.27;7.60;;;;;28.30;95910.00;;;;8396057;28;20683;-77
2022/06/22 15:04:32;;;;;;;9.82;6.82;;;;;28.00;95909.00;;;;8409322;28;20262;-77
2022/06/22 15:08:44;;;;;;;13.43;6.97;;;;;27.80;95922.00;;;;8404862;28;20560;-77
2022/06/22 15:12:58;;;;;;;12.98;6.88;;;;;27.90;95911.00;;;;8410017;28;20227;-78
2022/06/22 15:17:09;;;;;;;11.45;6.97;;;;;27.90;95916.00;;;;8403884;28;20193;-77
2022/06/22 15:21:17;;;;;;;12.90;7.28;;;;;28.00;95915.00;;;;8421675;28;20230;-78
2022/06/22 15:25:32;;;;;;;17.05;7.55;;;;;27.80;95924.00;;;;8411098;28;20203;-78
2022/06/22 15:29:46;;;;;;;9.45;8.40;;;;;27.40;95923.00;;;;8395091;28;20224;-77
2022/06/22 15:33:55;;;;;;;12.80;9.18;;;;;26.90;95920.00;;;;8407183;28;20198;-78
2022/06/22 15:38:02;;;;;;;13.77;10.13;;;;;26.30;95925.00;;;;8402612;28;20287;-75
2022/06/22 15:42:24;;;;;;;15.77;10.75;;;;;25.50;95927.00;;;;8413535;28;20203;-78
2022/06/22 15:46:37;;;;;;;16.70;11.45;;;;;24.90;95923.00;;;;8418218;28;20265;-74
2022/06/22 15:50:45;;;;;;;14.15;10.65;;;;;24.20;95926.00;;;;8407234;28;20227;-72
2022/06/22 15:54:57;;;;;;;13.75;10.20;;;;;23.60;95914.00;;;;8420747;28;20196;-69
2022/06/22 15:59:10;;;;;;;16.67;11.60;;;;;23.30;95919.00;;;;8396190;28;20677;-66
2022/06/22 16:03:19;;;;;;;14.45;10.93;;;;;23.00;95911.00;;;;8392321;28;20232;-66
2022/06/22 16:07:47;;;;;;;18.88;11.45;;;;;23.00;95915.00;;;;8404233;28;20200;-67
2022/06/22 16:16:27;;;;;;;16.90;12.20;;;;;23.00;95908.00;;;;8402980;28;20656;-67
2022/06/22 16:20:36;;;;;;;15.23;11.60;;;;;22.90;95907.00;;;;8401993;28;20192;-65
2022/06/22 16:24:46;;;;;;;18.00;13.07;;;;;22.80;95916.00;;;;8409346;28;20200;-67
2022/06/22 16:28:52;;;;;;;28.05;12.82;;;;;23.00;95909.00;;;;8398722;28;20203;-67
2022/06/22 16:33:03;;;;;;;18.80;12.35;;;;;22.80;95909.00;;;;8399578;28;20230;-68
2022/06/22 16:37:17;;;;;;;14.25;10.93;;;;;22.80;95900.00;;;;8409774;28;20195;-67
2022/06/22 16:41:31;;;;;;;15.23;11.50;;;;;22.70;95908.00;;;;8408334;28;20189;-68
2022/06/22 16:46:02;;;;;;;14.25;10.48;;;;;22.50;95901.00;;;;8418105;28;20644;-67
2022/06/22 16:50:17;;;;;;;15.20;9.43;;;;;22.30;95904.00;;;;8403878;28;20223;-66
2022/06/22 16:54:25;;;;;;;13.90;9.05;;;;;22.20;95892.00;;;;8405351;28;20210;-68
2022/06/22 16:58:33;;;;;;;9.90;8.15;;;;;22.20;95896.00;;;;8397577;28;20321;-66
2022/06/22 17:02:44;;;;;;;11.88;7.45;;;;;22.10;95904.00;;;;8394497;28;20231;-68
2022/06/22 17:06:57;;;;;;;13.55;8.27;;;;;22.00;95908.00;;;;8407591;28;20196;-67
2022/06/22 17:11:14;;;;;;;12.75;8.38;;;;;21.80;95906.00;;;;8401622;28;20489;-67
2022/06/22 17:15:35;;;;;;;15.63;9.38;;;;;21.80;95909.00;;;;8405699;28;20353;-67
2022/06/22 17:19:48;;;;;;;12.25;9.25;;;;;21.80;95907.00;;;;8400487;28;20203;-68
2022/06/22 17:24:16;;;;;;;15.25;9.23;;;;;21.80;95905.00;;;;8413663;28;20199;-67
2022/06/22 17:28:27;;;;;;;11.70;9.63;;;;;21.90;95913.00;;;;8416500;28;20200;-67
2022/06/22 17:32:36;;;;;;;16.40;9.73;;;;;21.90;95916.00;;;;8419423;28;20224;-68
2022/06/22 17:36:53;;;;;;;13.70;10.38;;;;;22.00;95910.00;;;;8421315;28;20200;-68
2022/06/22 17:41:05;;;;;;;14.02;9.68;;;;;22.10;95918.00;;;;8421463;28;20195;-67
2022/06/22 17:45:15;;;;;;;14.57;9.82;;;;;22.20;95910.00;;;;8414560;28;20286;-69
2022/06/22 17:49:20;;;;;;;14.75;10.13;;;;;22.20;95911.00;;;;8419960;28;20298;-68
2022/06/22 17:53:28;;;;;;;12.60;10.98;;;;;22.20;95899.00;;;;8413209;28;20237;-68
2022/06/22 17:57:37;;;;;;;16.85;11.88;;;;;22.20;95900.00;;;;8411070;28;20195;-68
2022/06/22 18:01:47;;;;;;;14.07;11.40;;;;;22.30;95896.00;;;;8397943;28;20326;-69
2022/06/22 18:05:56;;;;;;;16.67;10.63;;;;;22.30;95890.00;;;;8397617;28;20204;-67
2022/06/22 18:10:03;;;;;;;16.23;10.75;;;;;22.30;95897.00;;;;8395617;28;20208;-68
2022/06/22 18:14:14;;;;;;;16.55;11.18;;;;;22.30;95902.00;;;;8398497;28;20200;-68
2022/06/22 18:18:22;;;;;;;15.07;10.88;;;;;22.20;95892.00;;;;8406831;28;20671;-67
2022/06/22 18:22:32;;;;;;;17.40;11.55;;;;;22.20;95895.00;;;;8414219;28;20838;-71
2022/06/22 18:26:45;;;;;;;18.25;12.05;;;;;22.20;95899.00;;;;8406212;28;20291;-68
2022/06/22 18:30:54;;;;;;;18.33;12.55;;;;;22.10;95895.00;;;;8402185;28;20307;-69
2022/06/22 18:35:07;;;;;;;17.73;12.25;;;;;22.00;95895.00;;;;8408869;28;20196;-70
2022/06/22 18:43:42;;;;;;;24.13;14.25;;;;;22.00;95901.00;;;;8409832;28;20187;-70
2022/06/22 18:47:51;;;;;;;21.15;13.90;;;;;21.90;95903.00;;;;8421705;28;20278;-70
2022/06/22 18:52:00;;;;;;;22.27;15.48;;;;;21.90;95904.00;;;;8413036;28;20215;-69
2022/06/22 18:56:06;;;;;;;22.35;13.98;;;;;21.80;95902.00;;;;8406862;28;22154;-71
2022/06/22 19:00:17;;;;;;;20.52;14.98;;;;;21.80;95897.00;;;;8404979;28;20231;-70
2022/06/22 19:04:27;;;;;;;24.00;15.68;;;;;21.80;95908.00;;;;8398294;28;20763;-70
2022/06/22 19:08:33;;;;;;;23.75;15.75;;;;;21.80;95915.00;;;;8390206;28;20648;-71
2022/06/22 19:12:43;;;;;;;24.88;15.93;;;;;21.80;95903.00;;;;8406028;28;20238;-71
2022/06/22 19:16:53;;;;;;;29.42;16.00;;;;;21.70;95908.00;;;;8395925;28;20627;-72
2022/06/22 19:21:08;;;;;;;35.70;15.57;;;;;21.70;95910.00;;;;8404516;28;20885;-71
2022/06/22 19:25:26;;;;;;;23.13;15.52;;;;;21.60;95916.00;;;;8402758;28;20227;-72
2022/06/22 19:29:36;;;;;;;29.77;16.55;;;;;21.70;95921.00;;;;8405069;28;20206;-72
2022/06/22 19:33:48;;;;;;;34.55;17.85;;;;;21.60;95921.00;;;;8409937;28;20871;-72
2022/06/22 19:38:03;;;;;;;27.15;17.45;;;;;21.50;95933.00;;;;8406472;28;20201;-71
2022/06/22 19:42:22;;;;;;;34.20;16.48;;;;;21.50;95951.00;;;;8397782;28;20209;-72
2022/06/22 19:46:37;;;;;;;28.75;17.13;;;;;21.50;95952.00;;;;8404861;28;20798;-73
2022/06/22 19:50:50;;;;;;;34.90;17.75;;;;;21.50;95952.00;;;;8400586;28;20239;-73
2022/06/22 19:55:02;;;;;;;30.42;16.90;;;;;21.50;95963.00;;;;8398833;28;20290;-72
2022/06/22 19:59:06;;;;;;;29.85;16.77;;;;;21.50;95959.00;;;;8402191;28;20205;-71
2022/06/22 20:03:15;;;;;;;35.08;17.65;;;;;21.50;95963.00;;;;8401482;28;20232;-74
2022/06/22 20:07:22;;;;;;;28.48;17.63;;;;;21.40;95976.00;;;;8407948;28;20655;-73
2022/06/22 20:11:34;;;;;;;43.17;18.80;;;;;21.30;95982.00;;;;8409618;28;20253;-74
2022/06/22 20:15:42;;;;;;;27.40;17.38;;;;;21.30;95978.00;;;;8420008;28;20208;-71
2022/06/22 20:19:46;;;;;;;46.42;19.77;;;;;21.30;95982.00;;;;8401910;28;20243;-74
2022/06/22 20:23:59;;;;;;;29.92;17.05;;;;;21.30;95988.00;;;;8404959;28;20209;-74
2022/06/22 20:28:13;;;;;;;38.03;18.02;;;;;21.20;95994.00;;;;8397482;28;20238;-74
2022/06/22 20:32:27;;;;;;;32.72;18.77;;;;;21.30;95992.00;;;;8407813;28;20223;-74
2022/06/22 20:36:42;;;;;;;31.70;20.65;;;;;21.20;95997.00;;;;8403710;28;20862;-74
2022/06/22 20:41:00;;;;;;;30.02;19.73;;;;;21.20;96001.00;;;;8394467;28;20242;-77
2022/06/22 20:45:15;;;;;;;35.72;20.02;;;;;21.20;95997.00;;;;8397676;28;20254;-74
2022/06/22 20:49:22;;;;;;;46.00;21.73;;;;;21.30;95989.00;;;;8405606;28;20230;-79
2022/06/22 20:53:32;;;;;;;33.40;20.58;;;;;21.30;95995.00;;;;8402803;28;20214;-76
2022/06/22 20:57:43;;;;;;;39.33;22.85;;;;;21.20;95996.00;;;;8410473;28;20223;-74
2022/06/22 21:01:54;;;;;;;38.97;19.98;;;;;21.20;95999.00;;;;8415942;28;20334;-75
2022/06/22 21:06:08;;;;;;;40.95;21.02;;;;;21.20;95992.00;;;;8404980;28;20206;-75
2022/06/22 21:10:15;;;;;;;37.92;20.33;;;;;21.10;95986.00;;;;8399234;28;20209;-75
2022/06/22 21:14:23;;;;;;;39.50;22.95;;;;;21.10;95999.00;;;;8393016;28;20223;-75
2022/06/22 21:18:40;;;;;;;37.83;22.13;;;;;21.10;95988.00;;;;8395470;28;22104;-76
2022/06/22 21:22:43;;;;;;;34.55;19.33;;;;;21.20;95992.00;;;;8396932;28;20669;-75